Time;durP1;ratioP1;P1;durP2;ratioP2;P2;SDS_P1;SDS_P2;PMS_P1;PMS_P2;Temp;Humidity;BMP_temperature;BMP_pressure;BME280_temperature;BME280_humidity;BME280_pressure;Samples;Min_cycle;Max_cycle;Signal;HPM_P1;HPM_P2
2022/12/22 03:25:56;;;;;;;;;;;17.90;42.60;;;;;;8334768;28;19997;-45
2022/12/22 03:29:56;;;;;;;;;;;17.90;42.50;;;;;;8335040;28;20378;-45
2022/12/22 03:33:57;;;;;;;;;;;17.90;42.20;;;;;;8335102;28;20386;-45
2022/12/22 03:38:02;;;;;;;;;;;17.90;42.40;;;;;;8334495;28;19913;-45
2022/12/22 03:46:30;;;;;;;;;;;17.90;42.80;;;;;;8336234;28;19924;-45
2022/12/22 03:50:31;;;;;;;;;;;17.90;42.40;;;;;;8334437;28;19918;-44
2022/12/22 03:54:31;;;;;;;;;;;17.90;43.00;;;;;;8334279;28;19917;-46
2022/12/22 03:58:32;;;;;;;;;;;17.90;42.10;;;;;;8333773;28;20417;-45
2022/12/22 04:02:32;;;;;;;;;;;17.90;42.50;;;;;;8333945;28;19923;-45
2022/12/22 04:06:33;;;;;;;;;;;17.90;42.40;;;;;;8333885;28;19950;-45
2022/12/22 04:14:52;;;;;;;;;;;17.80;42.30;;;;;;8342287;28;20488;-45
2022/12/22 04:18:53;;;;;;;;;;;17.90;42.70;;;;;;8336060;28;20015;-44
2022/12/22 04:22:54;;;;;;;;;;;17.90;42.80;;;;;;8335496;28;19917;-45
2022/12/22 04:26:55;;;;;;;;;;;17.90;42.80;;;;;;8331958;28;19917;-44
2022/12/22 04:30:55;;;;;;;;;;;18.00;42.80;;;;;;8332765;28;19960;-44
2022/12/22 04:34:56;;;;;;;;;;;18.00;42.80;;;;;;8332656;28;19917;-44
2022/12/22 04:38:56;;;;;;;;;;;18.10;42.80;;;;;;8332961;28;19925;-44
2022/12/22 04:42:56;;;;;;;;;;;18.20;42.60;;;;;;8332669;28;19986;-44
2022/12/22 04:46:57;;;;;;;;;;;18.20;42.50;;;;;;8332293;28;20337;-45
2022/12/22 04:50:58;;;;;;;;;;;18.30;42.70;;;;;;8332526;28;20004;-45
2022/12/22 04:54:59;;;;;;;;;;;18.30;42.70;;;;;;8332570;28;19964;-45
2022/12/22 04:58:59;;;;;;;;;;;18.30;42.60;;;;;;8331814;28;19925;-44
2022/12/22 05:03:00;;;;;;;;;;;18.40;42.80;;;;;;8332382;28;19921;-45
2022/12/22 05:07:00;;;;;;;;;;;18.40;42.80;;;;;;8331988;28;20012;-44
2022/12/22 05:11:01;;;;;;;;;;;18.40;43.00;;;;;;8321380;28;20366;-44
2022/12/22 05:15:02;;;;;;;;;;;18.50;42.90;;;;;;8303785;28;19969;-44
2022/12/22 05:19:02;;;;;;;;;;;18.60;42.90;;;;;;8331717;28;19925;-48
2022/12/22 05:23:03;;;;;;;;;;;18.60;43.00;;;;;;8331099;28;19924;-45
2022/12/22 05:27:04;;;;;;;;;;;18.70;42.80;;;;;;8331521;28;19917;-45
2022/12/22 05:31:05;;;;;;;;;;;18.70;42.90;;;;;;8331299;28;19917;-44
2022/12/22 05:35:06;;;;;;;;;;;18.70;43.00;;;;;;8330733;28;19924;-45
2022/12/22 05:39:06;;;;;;;;;;;18.80;43.10;;;;;;8331443;28;20347;-45
2022/12/22 05:43:08;;;;;;;;;;;18.80;43.00;;;;;;8330663;28;20298;-44
2022/12/22 05:47:09;;;;;;;;;;;18.80;43.10;;;;;;8330751;28;19921;-45
2022/12/22 05:51:09;;;;;;;;;;;18.80;43.00;;;;;;8330755;28;19971;-45
2022/12/22 05:55:10;;;;;;;;;;;18.90;42.90;;;;;;8330286;28;19917;-44
2022/12/22 05:59:11;;;;;;;;;;;18.90;43.00;;;;;;8330746;28;19921;-45
2022/12/22 06:03:11;;;;;;;;;;;19.00;42.80;;;;;;8330530;28;20429;-47
2022/12/22 06:07:12;;;;;;;;;;;19.00;43.00;;;;;;8329914;28;19979;-47
2022/12/22 06:11:16;;;;;;;;;;;19.00;43.10;;;;;;8330170;28;19924;-47
2022/12/22 06:15:17;;;;;;;;;;;19.10;43.00;;;;;;8330314;28;20259;-46
2022/12/22 06:19:17;;;;;;;;;;;19.10;42.80;;;;;;8329963;28;20020;-46
2022/12/22 06:23:18;;;;;;;;;;;19.10;42.80;;;;;;8330115;28;19917;-47
2022/12/22 06:27:19;;;;;;;;;;;19.10;43.10;;;;;;8329878;28;19924;-46
2022/12/22 06:31:19;;;;;;;;;;;19.10;42.80;;;;;;8329507;28;19921;-46
2022/12/22 06:35:20;;;;;;;;;;;19.20;43.20;;;;;;8330117;28;20000;-48
2022/12/22 06:39:20;;;;;;;;;;;19.20;42.90;;;;;;8329932;28;20313;-46
2022/12/22 06:43:20;;;;;;;;;;;19.20;43.10;;;;;;8329273;28;20038;-46
2022/12/22 06:47:21;;;;;;;;;;;19.20;42.90;;;;;;8329574;28;19939;-46
2022/12/22 06:51:21;;;;;;;;;;;19.30;43.00;;;;;;8333445;28;20316;-45
2022/12/22 06:55:22;;;;;;;;;;;19.30;43.10;;;;;;8335695;28;20385;-46
2022/12/22 06:59:22;;;;;;;;;;;19.30;42.80;;;;;;8336208;28;20388;-45
2022/12/22 07:03:23;;;;;;;;;;;19.30;42.80;;;;;;8335891;28;20019;-46
2022/12/22 07:07:23;;;;;;;;;;;19.40;42.90;;;;;;8335405;28;19921;-45
2022/12/22 07:11:24;;;;;;;;;;;19.40;42.70;;;;;;8335766;28;19921;-46
2022/12/22 07:15:24;;;;;;;;;;;19.40;42.70;;;;;;8335565;28;19913;-46
2022/12/22 07:19:24;;;;;;;;;;;19.40;42.90;;;;;;8335080;28;19921;-47
2022/12/22 07:23:25;;;;;;;;;;;19.40;42.90;;;;;;8335331;28;19917;-46
2022/12/22 07:27:26;;;;;;;;;;;19.40;42.90;;;;;;8335221;28;20348;-46
2022/12/22 07:31:26;;;;;;;;;;;19.50;43.30;;;;;;8334568;28;19925;-45
2022/12/22 07:35:26;;;;;;;;;;;19.50;43.10;;;;;;8334755;28;20298;-45
2022/12/22 07:39:27;;;;;;;;;;;19.50;43.30;;;;;;8334863;28;19929;-46
2022/12/22 07:43:27;;;;;;;;;;;19.60;43.30;;;;;;8334180;28;19921;-45
2022/12/22 07:47:28;;;;;;;;;;;19.60;43.30;;;;;;8334670;28;19917;-45
2022/12/22 07:51:31;;;;;;;;;;;19.60;43.20;;;;;;8334530;28;19921;-46
2022/12/22 07:55:34;;;;;;;;;;;19.60;43.10;;;;;;8334765;28;19948;-46
2022/12/22 07:59:35;;;;;;;;;;;19.60;43.30;;;;;;8334621;28;19952;-46
2022/12/22 08:03:35;;;;;;;;;;;19.60;45.00;;;;;;8328305;28;20401;-45
2022/12/22 08:07:36;;;;;;;;;;;19.60;46.00;;;;;;8317106;28;20333;-46
2022/12/22 08:11:36;;;;;;;;;;;19.60;45.20;;;;;;8334130;28;19967;-46
2022/12/22 08:15:36;;;;;;;;;;;19.70;45.00;;;;;;8334077;28;19914;-47
2022/12/22 08:19:37;;;;;;;;;;;19.70;45.10;;;;;;8333076;28;19957;-46
2022/12/22 08:23:37;;;;;;;;;;;19.70;44.90;;;;;;8333541;28;19964;-46
2022/12/22 08:27:41;;;;;;;;;;;19.70;44.90;;;;;;8333190;28;19917;-46
2022/12/22 08:31:42;;;;;;;;;;;19.70;44.50;;;;;;8332617;28;20074;-47
2022/12/22 08:35:42;;;;;;;;;;;19.70;44.30;;;;;;8333281;28;19914;-46
2022/12/22 08:39:45;;;;;;;;;;;19.80;44.30;;;;;;8332765;28;19964;-46
2022/12/22 08:43:45;;;;;;;;;;;19.80;44.30;;;;;;8332323;28;20366;-45
2022/12/22 08:47:45;;;;;;;;;;;19.80;44.10;;;;;;8332456;28;20036;-45
2022/12/22 08:51:46;;;;;;;;;;;19.80;43.90;;;;;;8332744;28;19925;-46
2022/12/22 08:55:53;;;;;;;;;;;19.80;43.90;;;;;;8332165;28;19917;-46
2022/12/22 08:59:53;;;;;;;;;;;19.90;43.70;;;;;;8332251;28;19925;-46
2022/12/22 09:03:54;;;;;;;;;;;19.90;43.90;;;;;;8332103;28;19932;-46
2022/12/22 09:07:54;;;;;;;;;;;19.80;43.90;;;;;;8331508;28;20370;-46
2022/12/22 09:11:55;;;;;;;;;;;19.90;44.00;;;;;;8331713;28;19960;-46
2022/12/22 09:15:55;;;;;;;;;;;19.90;43.70;;;;;;8331842;28;20282;-46
2022/12/22 09:19:56;;;;;;;;;;;19.90;43.70;;;;;;8331121;28;19967;-46
2022/12/22 09:23:56;;;;;;;;;;;20.00;43.50;;;;;;8331804;28;19917;-47
2022/12/22 09:27:57;;;;;;;;;;;20.00;43.60;;;;;;8331326;28;19917;-46
2022/12/22 09:31:57;;;;;;;;;;;20.00;43.40;;;;;;8330882;28;20324;-45
2022/12/22 09:35:58;;;;;;;;;;;20.00;43.60;;;;;;8331523;28;19917;-45
2022/12/22 09:39:58;;;;;;;;;;;20.00;43.40;;;;;;8331156;28;20011;-46
2022/12/22 09:44:03;;;;;;;;;;;20.00;43.50;;;;;;8330561;28;19996;-46
2022/12/22 09:48:05;;;;;;;;;;;20.00;43.40;;;;;;8331002;28;20293;-46
2022/12/22 09:52:16;;;;;;;;;;;20.10;43.60;;;;;;8330903;28;20454;-46
2022/12/22 09:56:17;;;;;;;;;;;20.10;43.50;;;;;;8330469;28;20282;-45
2022/12/22 10:00:19;;;;;;;;;;;20.10;43.40;;;;;;8330605;28;19925;-45
2022/12/22 10:04:26;;;;;;;;;;;20.10;43.20;;;;;;8331220;28;19924;-45
2022/12/22 10:08:28;;;;;;;;;;;20.20;43.30;;;;;;8331363;28;19924;-45
2022/12/22 10:12:28;;;;;;;;;;;20.20;43.10;;;;;;8332243;28;19921;-49
2022/12/22 10:16:28;;;;;;;;;;;20.20;43.70;;;;;;8330071;28;19956;-44
2022/12/22 10:20:30;;;;;;;;;;;20.20;43.10;;;;;;8330164;28;19944;-47
2022/12/22 10:24:34;;;;;;;;;;;20.20;43.10;;;;;;8329869;28;19963;-46
2022/12/22 10:28:37;;;;;;;;;;;20.20;42.90;;;;;;8329395;28;19924;-45
2022/12/22 10:32:37;;;;;;;;;;;20.20;43.10;;;;;;8330114;28;19918;-47
2022/12/22 10:36:39;;;;;;;;;;;20.20;43.10;;;;;;8329649;28;19920;-45
2022/12/22 10:40:44;;;;;;;;;;;20.30;43.10;;;;;;8329536;28;19949;-46
2022/12/22 10:44:46;;;;;;;;;;;20.30;43.00;;;;;;8329686;28;19918;-47
2022/12/22 10:48:46;;;;;;;;;;;20.30;42.90;;;;;;8329637;28;19924;-45
2022/12/22 10:52:54;;;;;;;;;;;20.30;42.80;;;;;;8329555;28;20374;-46
2022/12/22 10:56:58;;;;;;;;;;;20.40;42.80;;;;;;8329758;28;19936;-45
2022/12/22 11:01:00;;;;;;;;;;;20.40;42.70;;;;;;8329702;28;19933;-46
2022/12/22 11:05:02;;;;;;;;;;;20.30;42.70;;;;;;8310219;28;20394;-46
2022/12/22 11:09:03;;;;;;;;;;;20.40;42.70;;;;;;8315069;28;19921;-45
2022/12/22 11:13:18;;;;;;;;;;;20.40;42.60;;;;;;8329318;28;19975;-45
2022/12/22 11:17:36;;;;;;;;;;;20.40;42.60;;;;;;8328988;28;19917;-46
2022/12/22 11:21:44;;;;;;;;;;;20.40;42.80;;;;;;8329319;28;19974;-46
2022/12/22 11:25:48;;;;;;;;;;;20.40;42.80;;;;;;8328556;28;19963;-47
2022/12/22 11:29:58;;;;;;;;;;;20.50;42.70;;;;;;8329035;28;19917;-46
2022/12/22 11:33:58;;;;;;;;;;;20.50;42.70;;;;;;8328874;28;19913;-47
2022/12/22 11:38:04;;;;;;;;;;;20.50;42.70;;;;;;8332724;28;20298;-45
2022/12/22 11:42:16;;;;;;;;;;;20.50;42.50;;;;;;8334612;28;19991;-45
2022/12/22 11:46:25;;;;;;;;;;;20.50;42.60;;;;;;8334477;28;19917;-47
2022/12/22 11:50:44;;;;;;;;;;;20.60;42.50;;;;;;8334726;28;20290;-45
2022/12/22 11:55:03;;;;;;;;;;;20.60;42.60;;;;;;8334496;28;19917;-46
2022/12/22 11:59:14;;;;;;;;;;;20.60;42.40;;;;;;8333710;28;19983;-46
2022/12/22 12:03:37;;;;;;;;;;;20.60;42.50;;;;;;8334173;28;19917;-46
2022/12/22 12:07:47;;;;;;;;;;;20.60;42.50;;;;;;8296265;28;20259;-45
2022/12/22 12:11:47;;;;;;;;;;;20.70;42.50;;;;;;8334366;28;20274;-46
2022/12/22 12:15:52;;;;;;;;;;;20.70;42.30;;;;;;8333601;28;19955;-47
2022/12/22 12:19:55;;;;;;;;;;;20.70;42.30;;;;;;8333154;28;19932;-45
2022/12/22 12:23:56;;;;;;;;;;;20.70;42.30;;;;;;8333389;28;19917;-45
2022/12/22 12:27:56;;;;;;;;;;;20.70;42.30;;;;;;8333562;28;20456;-47
2022/12/22 12:32:00;;;;;;;;;;;20.70;42.20;;;;;;8333017;28;20063;-45
2022/12/22 12:36:10;;;;;;;;;;;20.70;42.30;;;;;;8333287;28;20008;-45
2022/12/22 12:40:24;;;;;;;;;;;20.70;42.40;;;;;;8332657;28;19925;-47
2022/12/22 12:44:30;;;;;;;;;;;20.70;42.30;;;;;;8332956;28;20396;-46
2022/12/22 12:48:33;;;;;;;;;;;20.70;42.40;;;;;;8332296;28;20027;-45
2022/12/22 12:52:39;;;;;;;;;;;20.70;42.20;;;;;;8332486;28;19929;-47
2022/12/22 12:56:54;;;;;;;;;;;20.80;42.40;;;;;;8332633;28;19928;-45
2022/12/22 13:00:54;;;;;;;;;;;20.80;42.30;;;;;;8332277;28;20447;-48
2022/12/22 13:05:10;;;;;;;;;;;20.80;42.20;;;;;;8331853;28;19917;-44
2022/12/22 13:09:21;;;;;;;;;;;20.80;42.20;;;;;;8331585;28;21302;-45
2022/12/22 13:13:22;;;;;;;;;;;20.90;42.30;;;;;;8331480;28;19924;-44
2022/12/22 13:17:47;;;;;;;;;;;20.90;42.30;;;;;;8332294;28;19913;-44
2022/12/22 13:21:47;;;;;;;;;;;20.90;42.30;;;;;;8331885;28;19994;-46
2022/12/22 13:25:52;;;;;;;;;;;20.90;42.20;;;;;;8331125;28;19917;-44
2022/12/22 13:29:53;;;;;;;;;;;20.90;42.20;;;;;;8331741;28;19918;-45
2022/12/22 13:34:05;;;;;;;;;;;20.90;42.10;;;;;;8331367;28;20005;-46
2022/12/22 13:38:24;;;;;;;;;;;20.90;42.10;;;;;;8330768;28;20322;-47
2022/12/22 13:42:24;;;;;;;;;;;21.00;42.00;;;;;;8331362;28;19921;-45
2022/12/22 13:46:25;;;;;;;;;;;21.00;42.00;;;;;;8330448;28;19917;-44
2022/12/22 13:50:29;;;;;;;;;;;21.00;41.90;;;;;;8330781;28;20345;-45
2022/12/22 13:54:32;;;;;;;;;;;21.00;41.90;;;;;;8330760;28;19924;-44
2022/12/22 13:58:35;;;;;;;;;;;21.00;41.80;;;;;;8329687;28;19924;-48
2022/12/22 14:02:36;;;;;;;;;;;21.00;41.70;;;;;;8330107;28;19921;-45
2022/12/22 14:06:38;;;;;;;;;;;21.00;41.70;;;;;;8314970;28;19925;-45
2022/12/22 14:10:41;;;;;;;;;;;21.10;41.80;;;;;;8318443;28;19956;-45
2022/12/22 14:14:42;;;;;;;;;;;21.00;41.80;;;;;;8330136;28;19928;-45
2022/12/22 14:18:43;;;;;;;;;;;21.00;41.70;;;;;;8330184;28;19979;-45
2022/12/22 14:22:50;;;;;;;;;;;21.00;41.80;;;;;;8329785;28;20398;-45
2022/12/22 14:26:52;;;;;;;;;;;21.00;41.60;;;;;;8329969;28;19921;-46
2022/12/22 14:30:54;;;;;;;;;;;21.00;41.60;;;;;;8330039;28;19924;-44
2022/12/22 14:34:54;;;;;;;;;;;21.10;41.60;;;;;;8329307;28;19992;-44
2022/12/22 14:38:56;;;;;;;;;;;21.10;41.70;;;;;;8329688;28;19925;-48
2022/12/22 14:42:57;;;;;;;;;;;21.10;41.60;;;;;;8329851;28;19952;-45
2022/12/22 14:47:06;;;;;;;;;;;21.10;41.60;;;;;;8329185;28;20371;-46
2022/12/22 14:51:07;;;;;;;;;;;21.10;41.60;;;;;;8329897;28;19921;-45
2022/12/22 14:55:22;;;;;;;;;;;21.10;41.60;;;;;;8329026;28;19917;-44
2022/12/22 14:59:24;;;;;;;;;;;21.10;41.70;;;;;;8329500;28;20341;-45
2022/12/22 15:03:24;;;;;;;;;;;21.10;41.60;;;;;;8329586;28;19917;-46
2022/12/22 15:07:25;;;;;;;;;;;21.10;41.60;;;;;;8329106;28;19917;-45
2022/12/22 15:11:25;;;;;;;;;;;21.10;41.60;;;;;;8331416;28;19921;-45
2022/12/22 15:15:26;;;;;;;;;;;21.20;41.60;;;;;;8335093;28;19924;-45
2022/12/22 15:19:30;;;;;;;;;;;21.10;41.60;;;;;;8335055;28;20074;-46
2022/12/22 15:23:30;;;;;;;;;;;21.20;41.60;;;;;;8335651;28;19924;-47
2022/12/22 15:27:31;;;;;;;;;;;21.10;42.10;;;;;;8335048;28;19961;-45
2022/12/22 15:31:32;;;;;;;;;;;21.20;41.60;;;;;;8334599;28;19917;-47
2022/12/22 15:35:33;;;;;;;;;;;21.20;41.60;;;;;;8335013;28;19963;-45
2022/12/22 15:39:33;;;;;;;;;;;21.20;41.60;;;;;;8333720;28;19925;-46
2022/12/22 15:43:34;;;;;;;;;;;21.20;41.60;;;;;;8334568;28;19916;-44
2022/12/22 15:47:34;;;;;;;;;;;21.20;41.50;;;;;;8334825;28;20021;-45
2022/12/22 15:51:35;;;;;;;;;;;21.20;41.50;;;;;;8334931;28;19921;-45
2022/12/22 15:55:43;;;;;;;;;;;21.20;41.60;;;;;;8333907;28;20004;-45
2022/12/22 15:59:43;;;;;;;;;;;21.20;41.50;;;;;;8334496;28;19925;-45
2022/12/22 16:03:43;;;;;;;;;;;21.20;41.50;;;;;;8334512;28;20302;-46
2022/12/22 16:07:44;;;;;;;;;;;21.20;41.50;;;;;;8333521;28;19921;-46
2022/12/22 16:11:44;;;;;;;;;;;21.20;41.50;;;;;;8333801;28;19952;-46
2022/12/22 16:15:45;;;;;;;;;;;21.30;41.50;;;;;;8333886;28;19917;-45
2022/12/22 16:19:46;;;;;;;;;;;21.20;41.50;;;;;;8333175;28;20449;-46
2022/12/22 16:23:47;;;;;;;;;;;21.20;41.50;;;;;;8332744;28;19956;-44
2022/12/22 16:27:48;;;;;;;;;;;21.30;41.40;;;;;;8333480;28;19923;-44
2022/12/22 16:31:49;;;;;;;;;;;21.30;41.40;;;;;;8332770;28;20367;-46
2022/12/22 16:35:49;;;;;;;;;;;21.30;41.30;;;;;;8333284;28;19925;-44
2022/12/22 16:39:50;;;;;;;;;;;21.30;41.30;;;;;;8333063;28;20462;-45
2022/12/22 16:43:52;;;;;;;;;;;21.30;41.30;;;;;;8332698;28;19918;-46
2022/12/22 16:47:53;;;;;;;;;;;21.30;41.30;;;;;;8332687;28;19917;-45
2022/12/22 16:51:54;;;;;;;;;;;21.30;41.30;;;;;;8332926;28;20255;-44
2022/12/22 16:55:54;;;;;;;;;;;21.30;41.30;;;;;;8330771;28;19921;-45
2022/12/22 16:59:55;;;;;;;;;;;21.30;41.30;;;;;;8328116;28;19933;-44
2022/12/22 17:03:56;;;;;;;;;;;21.30;41.30;;;;;;8325890;28;20301;-46
2022/12/22 17:07:57;;;;;;;;;;;21.30;41.40;;;;;;8325578;28;19917;-44
2022/12/22 17:11:59;;;;;;;;;;;21.40;41.60;;;;;;8328654;28;20008;-45
2022/12/22 17:16:00;;;;;;;;;;;21.40;41.70;;;;;;8330820;28;19971;-45
2022/12/22 17:20:00;;;;;;;;;;;21.40;41.80;;;;;;8327829;28;19929;-44
2022/12/22 17:24:02;;;;;;;;;;;21.50;41.90;;;;;;8331929;28;19951;-44
2022/12/22 17:28:03;;;;;;;;;;;21.50;41.90;;;;;;8327800;28;20015;-47
2022/12/22 17:32:03;;;;;;;;;;;21.50;42.00;;;;;;8324953;28;19917;-46
2022/12/22 17:36:04;;;;;;;;;;;21.50;42.10;;;;;;8329683;28;19921;-45
2022/12/22 17:40:05;;;;;;;;;;;21.40;42.10;;;;;;8331218;28;20282;-44
2022/12/22 17:44:10;;;;;;;;;;;21.40;42.00;;;;;;8330820;28;19921;-44
2022/12/22 17:48:12;;;;;;;;;;;21.40;42.10;;;;;;8330996;28;19941;-43
2022/12/22 17:52:16;;;;;;;;;;;21.40;42.00;;;;;;8330739;28;20271;-44
2022/12/22 17:56:18;;;;;;;;;;;21.30;41.90;;;;;;8330735;28;19917;-44
2022/12/22 18:00:29;;;;;;;;;;;21.30;41.90;;;;;;8330803;28;19968;-43
2022/12/22 18:04:29;;;;;;;;;;;21.30;41.80;;;;;;8330582;28;20355;-44
2022/12/22 18:08:29;;;;;;;;;;;21.20;41.80;;;;;;8330400;28;19984;-44
2022/12/22 18:12:30;;;;;;;;;;;21.20;41.80;;;;;;8330297;28;19921;-45
2022/12/22 18:16:30;;;;;;;;;;;21.20;41.90;;;;;;8329943;28;19917;-44
2022/12/22 18:20:31;;;;;;;;;;;21.20;41.80;;;;;;8330165;28;19925;-44
2022/12/22 18:24:31;;;;;;;;;;;21.10;41.90;;;;;;8330367;28;19948;-45
2022/12/22 18:28:32;;;;;;;;;;;21.10;41.80;;;;;;8329553;28;19917;-45
2022/12/22 18:32:32;;;;;;;;;;;21.00;41.80;;;;;;8329985;28;20444;-44
2022/12/22 18:36:33;;;;;;;;;;;21.00;41.70;;;;;;8330046;28;20293;-44
2022/12/22 18:40:35;;;;;;;;;;;20.90;41.70;;;;;;8329404;28;19925;-44
2022/12/22 18:44:35;;;;;;;;;;;20.90;41.80;;;;;;8330493;28;19967;-44
2022/12/22 18:48:35;;;;;;;;;;;20.90;41.70;;;;;;8335667;28;19917;-43
2022/12/22 18:52:36;;;;;;;;;;;20.90;41.90;;;;;;8335900;28;20333;-44
2022/12/22 18:56:36;;;;;;;;;;;20.80;41.90;;;;;;8336238;28;19925;-44
2022/12/22 19:00:37;;;;;;;;;;;20.80;41.90;;;;;;8336116;28;19967;-45
2022/12/22 19:04:37;;;;;;;;;;;20.80;42.00;;;;;;8336618;28;20004;-45
2022/12/22 19:08:38;;;;;;;;;;;20.70;42.00;;;;;;8336047;28;20003;-44
2022/12/22 19:12:39;;;;;;;;;;;20.70;41.90;;;;;;8335756;28;19917;-44
2022/12/22 19:16:39;;;;;;;;;;;20.70;42.10;;;;;;8335102;28;19924;-44
2022/12/22 19:20:40;;;;;;;;;;;20.70;42.00;;;;;;8335679;28;20386;-44
2022/12/22 19:24:43;;;;;;;;;;;20.60;42.00;;;;;;8335716;28;19925;-44
2022/12/22 19:28:44;;;;;;;;;;;20.60;42.00;;;;;;8334854;28;19921;-47
2022/12/22 19:32:46;;;;;;;;;;;20.60;42.00;;;;;;8335085;28;19928;-48
2022/12/22 19:36:47;;;;;;;;;;;20.60;42.00;;;;;;8335125;28;20378;-44
2022/12/22 19:40:48;;;;;;;;;;;20.50;41.90;;;;;;8334554;28;19933;-45
2022/12/22 19:44:49;;;;;;;;;;;20.50;42.00;;;;;;8335524;28;19967;-45
2022/12/22 19:48:50;;;;;;;;;;;20.50;42.00;;;;;;8334735;28;19917;-45
2022/12/22 19:52:50;;;;;;;;;;;20.50;42.00;;;;;;8334498;28;20414;-44
2022/12/22 19:56:53;;;;;;;;;;;20.40;42.00;;;;;;8334535;28;20285;-45
2022/12/22 20:00:53;;;;;;;;;;;20.40;42.10;;;;;;8334330;28;19925;-45
2022/12/22 20:04:54;;;;;;;;;;;20.40;42.00;;;;;;8334055;28;19920;-45
2022/12/22 20:09:00;;;;;;;;;;;20.40;42.10;;;;;;8333112;28;19917;-45
2022/12/22 20:13:02;;;;;;;;;;;20.40;42.00;;;;;;8334102;28;19913;-45
2022/12/22 20:17:03;;;;;;;;;;;20.40;42.00;;;;;;8333435;28;19917;-46
2022/12/22 20:21:10;;;;;;;;;;;20.40;42.00;;;;;;8333873;28;20350;-46
2022/12/22 20:25:15;;;;;;;;;;;20.30;42.00;;;;;;8333539;28;19921;-46
2022/12/22 20:29:15;;;;;;;;;;;20.30;42.00;;;;;;8333628;28;19917;-45
2022/12/22 20:33:17;;;;;;;;;;;20.30;42.00;;;;;;8333337;28;19929;-46
2022/12/22 20:37:17;;;;;;;;;;;20.30;42.10;;;;;;8332800;28;19913;-49
2022/12/22 20:41:18;;;;;;;;;;;20.30;42.20;;;;;;8332947;28;19975;-45
2022/12/22 20:45:22;;;;;;;;;;;20.20;42.10;;;;;;8333468;28;20263;-45
2022/12/22 20:49:22;;;;;;;;;;;20.20;42.00;;;;;;8332576;28;19925;-46
2022/12/22 20:53:23;;;;;;;;;;;20.20;42.10;;;;;;8332819;28;19921;-45
2022/12/22 20:57:23;;;;;;;;;;;20.20;42.00;;;;;;8332816;28;19913;-44
2022/12/22 21:01:24;;;;;;;;;;;20.20;42.00;;;;;;8332037;28;19932;-45
2022/12/22 21:05:24;;;;;;;;;;;20.20;42.10;;;;;;8332568;28;19913;-44
2022/12/22 21:09:25;;;;;;;;;;;20.10;42.00;;;;;;8331854;28;19917;-44
2022/12/22 21:13:26;;;;;;;;;;;20.10;42.10;;;;;;8331647;28;19971;-45
2022/12/22 21:17:26;;;;;;;;;;;20.10;42.20;;;;;;8331907;28;19924;-45
2022/12/22 21:21:27;;;;;;;;;;;20.10;42.30;;;;;;8331859;28;19971;-44
2022/12/22 21:25:27;;;;;;;;;;;20.10;42.30;;;;;;8331439;28;19917;-44
2022/12/22 21:29:28;;;;;;;;;;;20.10;42.30;;;;;;8331637;28;19948;-45
2022/12/22 21:33:29;;;;;;;;;;;20.10;42.30;;;;;;8331427;28;20374;-46
2022/12/22 21:37:34;;;;;;;;;;;20.10;42.30;;;;;;8331099;28;19918;-44
2022/12/22 21:45:54;;;;;;;;;;;20.00;42.30;;;;;;8331487;28;19920;-45
2022/12/22 21:49:54;;;;;;;;;;;20.00;42.20;;;;;;8330813;28;19956;-45
2022/12/22 21:53:55;;;;;;;;;;;20.00;42.30;;;;;;8331203;28;19993;-44
2022/12/22 21:57:56;;;;;;;;;;;20.00;42.20;;;;;;8329205;28;19967;-44
2022/12/22 22:01:56;;;;;;;;;;;19.90;42.20;;;;;;8330186;28;19925;-44
2022/12/22 22:05:57;;;;;;;;;;;19.90;42.20;;;;;;8330950;28;19920;-44
2022/12/22 22:09:57;;;;;;;;;;;19.90;42.40;;;;;;8330651;28;19917;-44
2022/12/22 22:13:58;;;;;;;;;;;19.90;42.10;;;;;;8329871;28;19917;-45
2022/12/22 22:17:58;;;;;;;;;;;19.90;42.10;;;;;;8330237;28;19936;-44
2022/12/22 22:21:58;;;;;;;;;;;19.90;42.00;;;;;;8329275;28;19934;-44
2022/12/22 22:25:59;;;;;;;;;;;19.90;42.00;;;;;;8329750;28;19920;-45
2022/12/22 22:29:59;;;;;;;;;;;19.90;42.00;;;;;;8330345;28;19997;-45
2022/12/22 22:34:00;;;;;;;;;;;19.90;42.00;;;;;;8329895;28;20012;-44
2022/12/22 22:38:00;;;;;;;;;;;19.80;41.90;;;;;;8329576;28;20404;-44
2022/12/22 22:42:01;;;;;;;;;;;19.80;41.90;;;;;;8329715;28;20024;-44
2022/12/22 22:46:01;;;;;;;;;;;19.80;42.00;;;;;;8330330;28;19917;-44
2022/12/22 22:50:05;;;;;;;;;;;19.80;42.20;;;;;;8329276;28;20325;-44
2022/12/22 22:54:05;;;;;;;;;;;19.80;42.30;;;;;;8329623;28;19928;-44
2022/12/22 22:58:06;;;;;;;;;;;19.70;42.10;;;;;;8329732;28;20394;-44
2022/12/22 23:02:06;;;;;;;;;;;19.70;42.00;;;;;;8320385;28;20027;-44
2022/12/22 23:06:09;;;;;;;;;;;19.70;42.10;;;;;;8329869;28;19920;-44
2022/12/22 23:10:09;;;;;;;;;;;19.70;42.00;;;;;;8328998;28;19921;-43
2022/12/22 23:14:10;;;;;;;;;;;19.70;42.10;;;;;;8329776;28;20366;-44
2022/12/22 23:18:10;;;;;;;;;;;19.70;42.10;;;;;;8329374;28;19917;-44
2022/12/22 23:22:11;;;;;;;;;;;19.70;42.20;;;;;;8328743;28;19936;-44
2022/12/22 23:26:11;;;;;;;;;;;19.60;42.00;;;;;;8329549;28;20309;-44
2022/12/22 23:30:12;;;;;;;;;;;19.60;42.00;;;;;;8329276;28;20270;-45
2022/12/22 23:34:12;;;;;;;;;;;19.60;42.30;;;;;;8333279;28;20370;-45
2022/12/22 23:38:13;;;;;;;;;;;19.60;42.40;;;;;;8335160;28;19917;-44
2022/12/22 23:42:14;;;;;;;;;;;19.60;42.20;;;;;;8334744;28;20007;-44
2022/12/22 23:46:15;;;;;;;;;;;19.60;42.20;;;;;;8334563;28;19917;-44
2022/12/22 23:50:15;;;;;;;;;;;19.60;42.20;;;;;;8334611;28;20385;-44
2022/12/22 23:54:16;;;;;;;;;;;19.60;42.30;;;;;;8334577;28;20386;-44
2022/12/22 23:58:16;;;;;;;;;;;19.60;42.40;;;;;;8333833;28;20302;-44
